Archival Weather

Heathrow

London, United Kingdom (EGLL)

Report from: Friday, September 23, 2022 9:20 PM BST
Current time: Monday, June 17, 2024 12:49 PM BST

Current weather – Weather history – Daily summaries
Weather forecast

Temperature16.0°C (60.8°F)
Dew point11.0°C (51.8°F)
Winds 4 kts (2.1 m/s, 4.6 mph) Northeast (50°)
Visibility6.2 mi. (10 km)
Clouds Sky clear
Altimeter29.97 in.Hg (1015 mB)
Relative humidity72 %
Density altitude244 ft. (74 m)
Remarks Fully automated report
No clouds detected
Flight conditions Visual Meteorological Conditions
Raw dataEGLL 232020Z AUTO 05004KT 9999 NCD 16/11 Q1015
An error has occurred. This application may no longer respond until reloaded. Reload 🗙